createdAt,value
2023-05-19T00:01:52.536Z,75.78
2023-05-19T00:04:25.584Z,76.00
2023-05-19T00:07:00.249Z,75.99
2023-05-19T00:09:33.154Z,76.10
2023-05-19T00:12:06.302Z,76.14
2023-05-19T00:14:39.234Z,76.22
2023-05-19T00:17:14.712Z,76.10
2023-05-19T00:19:47.426Z,76.19
2023-05-19T00:22:20.113Z,76.18
2023-05-19T00:24:52.857Z,76.20
2023-05-19T00:27:25.645Z,76.11
2023-05-19T00:29:58.376Z,76.25
2023-05-19T00:32:32.642Z,76.20
2023-05-19T00:35:05.689Z,76.35
2023-05-19T00:37:38.448Z,76.19
2023-05-19T00:40:11.545Z,76.13
2023-05-19T00:42:44.303Z,76.21
2023-05-19T00:45:17.002Z,76.03
2023-05-19T00:47:51.429Z,75.94
2023-05-19T00:50:24.728Z,75.98
2023-05-19T00:52:57.974Z,76.08
2023-05-19T00:55:33.098Z,75.99
2023-05-19T00:58:06.641Z,75.97
2023-05-19T01:00:39.967Z,76.09
2023-05-19T01:03:15.258Z,76.12
2023-05-19T01:05:48.437Z,76.14
2023-05-19T01:08:21.174Z,76.19
2023-05-19T01:10:54.455Z,76.05
2023-05-19T01:13:27.220Z,76.24
2023-05-19T01:16:03.073Z,76.27
2023-05-19T01:18:56.222Z,76.15
2023-05-19T01:21:38.499Z,76.28
2023-05-19T01:24:23.962Z,76.46
2023-05-19T01:27:10.583Z,76.33
2023-05-19T01:29:49.858Z,76.34
2023-05-19T01:32:25.123Z,76.34
2023-05-19T01:34:58.340Z,76.56
2023-05-19T01:37:31.556Z,76.48
2023-05-19T01:40:05.556Z,76.44
2023-05-19T01:42:40.113Z,76.56
2023-05-19T01:45:13.437Z,76.75
2023-05-19T01:47:49.812Z,76.69
2023-05-19T01:50:22.766Z,76.87
2023-05-19T01:52:55.749Z,76.83
2023-05-19T01:55:28.887Z,76.89
2023-05-19T01:58:08.588Z,76.80
2023-05-19T02:00:48.271Z,76.89
2023-05-19T02:03:27.905Z,76.91
2023-05-19T02:06:04.494Z,76.77
2023-05-19T02:08:44.256Z,76.91
2023-05-19T02:11:23.923Z,76.97
2023-05-19T02:13:57.696Z,77.17
2023-05-19T02:16:30.655Z,76.91
2023-05-19T02:19:04.934Z,76.96
2023-05-19T02:21:37.662Z,76.89
2023-05-19T02:24:11.056Z,76.91
2023-05-19T02:26:43.932Z,77.39
2023-05-19T02:29:16.746Z,77.15
2023-05-19T02:31:49.521Z,76.99
2023-05-19T02:34:24.151Z,77.07
2023-05-19T02:36:56.990Z,76.93
2023-05-19T02:39:35.057Z,76.95
2023-05-19T02:42:07.965Z,76.76
2023-05-19T02:44:40.726Z,76.93
2023-05-19T02:47:13.479Z,76.56
2023-05-19T02:49:47.810Z,76.46
2023-05-19T02:52:20.598Z,76.55
2023-05-19T02:54:53.329Z,76.48
2023-05-19T02:57:26.779Z,76.21
2023-05-19T02:59:59.499Z,76.17
2023-05-19T03:02:33.478Z,76.06
2023-05-19T03:05:10.298Z,75.87
2023-05-19T03:07:42.990Z,75.53
2023-05-19T03:10:15.664Z,75.56
2023-05-19T03:12:48.414Z,75.49
2023-05-19T03:15:23.628Z,75.34
2023-05-19T03:17:56.604Z,75.13
2023-05-19T03:20:31.654Z,75.20
2023-05-19T03:23:04.722Z,75.07
2023-05-19T03:25:37.474Z,74.75
2023-05-19T03:28:10.752Z,74.60
2023-05-19T03:30:43.474Z,74.70
2023-05-19T03:33:16.245Z,74.64
2023-05-19T03:35:50.780Z,74.45
2023-05-19T03:38:23.524Z,74.69
2023-05-19T03:40:56.424Z,74.77
2023-05-19T03:43:29.121Z,74.86
2023-05-19T03:46:02.342Z,74.80
2023-05-19T03:48:35.564Z,75.18
2023-05-19T03:51:09.666Z,75.21
2023-05-19T03:53:42.669Z,75.49
2023-05-19T03:56:16.855Z,75.54
2023-05-19T03:58:49.938Z,75.61
2023-05-19T04:01:22.724Z,75.51
2023-05-19T04:03:55.506Z,75.73
2023-05-19T04:06:29.756Z,75.93
2023-05-19T04:09:03.712Z,75.99
2023-05-19T04:11:37.149Z,76.45
2023-05-19T04:14:10.217Z,76.33
2023-05-19T04:16:43.037Z,76.10
2023-05-19T04:19:15.803Z,76.26
2023-05-19T04:21:49.984Z,76.23
2023-05-19T04:24:22.678Z,76.59
2023-05-19T04:26:56.370Z,76.58
2023-05-19T04:29:29.569Z,76.65
2023-05-19T04:32:02.307Z,76.78
2023-05-19T04:34:35.026Z,76.90
2023-05-19T04:37:10.347Z,77.13
2023-05-19T04:39:45.328Z,76.89
2023-05-19T04:42:19.544Z,77.53
2023-05-19T04:44:52.395Z,77.56
2023-05-19T04:47:28.394Z,78.04
2023-05-19T04:50:01.213Z,78.15
2023-05-19T04:52:35.323Z,78.44
2023-05-19T04:55:08.295Z,78.05
2023-05-19T04:57:41.031Z,77.89
2023-05-19T05:00:14.535Z,78.15
2023-05-19T05:02:47.449Z,78.33
2023-05-19T05:05:20.241Z,78.59
2023-05-19T05:07:54.963Z,78.01
2023-05-19T05:10:27.789Z,78.08
2023-05-19T05:13:00.953Z,77.83
2023-05-19T05:15:33.791Z,77.54
2023-05-19T05:18:06.863Z,77.51
2023-05-19T05:20:40.066Z,77.16
2023-05-19T05:23:15.463Z,77.42
2023-05-19T05:25:48.819Z,77.98
2023-05-19T05:28:21.754Z,77.93
2023-05-19T05:30:56.435Z,77.10
2023-05-19T05:33:29.321Z,78.17
2023-05-19T05:36:02.176Z,77.84
2023-05-19T05:38:37.448Z,77.91
2023-05-19T05:41:10.130Z,77.70
2023-05-19T05:43:42.909Z,77.17
2023-05-19T05:46:15.657Z,78.18
2023-05-19T05:48:48.742Z,78.06
2023-05-19T05:51:22.774Z,77.97
2023-05-19T05:53:57.388Z,76.14
2023-05-19T05:56:30.450Z,76.43
2023-05-19T05:59:03.209Z,77.93
2023-05-19T06:01:36.780Z,77.98
2023-05-19T06:04:09.586Z,76.34
2023-05-19T06:06:42.339Z,74.33
2023-05-19T06:09:16.767Z,76.16
2023-05-19T06:11:49.439Z,76.36
2023-05-19T06:14:22.255Z,77.51
2023-05-19T06:16:55.025Z,74.71
2023-05-19T06:19:27.906Z,77.29
2023-05-19T06:22:00.660Z,78.09
2023-05-19T06:24:34.735Z,76.00
2023-05-19T06:27:07.616Z,75.78
2023-05-19T06:29:40.364Z,75.41
2023-05-19T06:32:13.071Z,74.60
2023-05-19T06:34:45.871Z,76.23
2023-05-19T06:37:19.739Z,76.29
2023-05-19T06:39:54.905Z,79.02
2023-05-19T06:42:27.678Z,78.50
2023-05-19T06:45:00.551Z,78.46
2023-05-19T06:47:33.313Z,77.25
2023-05-19T06:50:06.343Z,78.77
2023-05-19T06:52:39.116Z,77.96
2023-05-19T06:55:13.277Z,77.39
2023-05-19T06:57:46.105Z,78.54
2023-05-19T07:00:20.594Z,77.76
2023-05-19T07:02:54.840Z,77.85
2023-05-19T07:05:27.661Z,77.43
2023-05-19T07:08:00.413Z,77.01
2023-05-19T07:10:34.858Z,77.39
2023-05-19T07:13:07.713Z,77.52
2023-05-19T07:15:40.462Z,75.44
2023-05-19T07:18:13.213Z,76.88
2023-05-19T07:20:46.089Z,77.68
2023-05-19T07:23:18.793Z,77.77
2023-05-19T07:25:55.041Z,75.80
2023-05-19T07:28:27.714Z,76.82
2023-05-19T07:31:00.835Z,76.68
2023-05-19T07:33:33.559Z,77.01
2023-05-19T07:36:06.714Z,77.48
2023-05-19T07:38:42.373Z,77.66
2023-05-19T07:41:30.937Z,78.01
2023-05-19T07:44:07.705Z,78.30
2023-05-19T07:46:40.916Z,77.96
2023-05-19T07:49:13.757Z,77.65
2023-05-19T07:51:46.509Z,77.02
2023-05-19T07:54:19.562Z,74.85
2023-05-19T07:56:54.043Z,77.90
2023-05-19T07:59:27.138Z,78.66
2023-05-19T08:01:59.961Z,77.07
2023-05-19T08:04:32.969Z,76.47
2023-05-19T08:07:06.057Z,77.68
2023-05-19T08:09:38.754Z,78.43
2023-05-19T08:12:12.888Z,77.39
2023-05-19T08:14:46.088Z,78.52
2023-05-19T08:17:18.868Z,77.35
2023-05-19T08:19:51.591Z,77.52
2023-05-19T08:22:24.265Z,76.88
2023-05-19T08:24:57.008Z,77.13
2023-05-19T08:27:31.150Z,78.42
2023-05-19T08:30:04.254Z,78.38
2023-05-19T08:32:37.081Z,78.30
2023-05-19T08:35:10.462Z,77.29
2023-05-19T08:37:43.212Z,78.21
2023-05-19T08:40:18.549Z,79.75
2023-05-19T08:42:52.991Z,79.69
2023-05-19T08:45:25.931Z,78.74
2023-05-19T08:47:59.263Z,79.12
2023-05-19T08:50:33.605Z,80.04
2023-05-19T08:53:21.088Z,80.44
2023-05-19T08:56:02.450Z,80.29
2023-05-19T08:58:37.221Z,81.27
2023-05-19T09:01:10.893Z,79.96
2023-05-19T09:03:44.488Z,79.23
2023-05-19T09:06:17.337Z,80.17
2023-05-19T09:08:50.134Z,78.98
2023-05-19T09:11:22.891Z,78.36
2023-05-19T09:13:57.071Z,77.64
2023-05-19T09:16:30.456Z,78.18
2023-05-19T09:19:03.394Z,78.33
2023-05-19T09:21:36.393Z,77.00
2023-05-19T09:24:10.667Z,78.67
2023-05-19T09:26:43.963Z,78.54
2023-05-19T09:29:19.341Z,78.40
2023-05-19T09:31:52.419Z,78.96
2023-05-19T09:34:26.974Z,79.87
2023-05-19T09:36:59.880Z,79.22
2023-05-19T09:39:32.913Z,78.24
2023-05-19T09:42:06.027Z,77.33
2023-05-19T09:44:40.307Z,77.28
2023-05-19T09:47:13.144Z,72.95
2023-05-19T09:49:47.795Z,78.27
2023-05-19T09:52:20.530Z,73.63
2023-05-19T09:54:56.150Z,78.45
2023-05-19T09:57:29.751Z,77.97
2023-05-19T10:00:08.792Z,78.57
2023-05-19T10:02:42.745Z,76.18
2023-05-19T10:05:17.798Z,77.82
2023-05-19T10:07:54.493Z,76.37
2023-05-19T10:10:28.932Z,78.29
2023-05-19T10:13:04.066Z,78.37
2023-05-19T10:15:53.715Z,79.13
2023-05-19T10:18:30.874Z,78.96
2023-05-19T10:21:03.744Z,79.07
2023-05-19T10:23:36.496Z,78.05
2023-05-19T10:26:10.005Z,79.68
2023-05-19T10:28:44.362Z,78.34
2023-05-19T10:31:20.822Z,76.57
2023-05-19T10:34:11.574Z,70.47
2023-05-19T10:36:46.713Z,71.54
2023-05-19T10:39:27.876Z,73.89
2023-05-19T10:42:05.279Z,76.55
2023-05-19T10:44:44.378Z,74.78
2023-05-19T10:47:23.508Z,75.83
2023-05-19T10:49:56.876Z,76.87
2023-05-19T10:52:32.977Z,76.96
2023-05-19T10:55:08.758Z,76.76
2023-05-19T10:57:54.596Z,77.49
2023-05-19T11:00:31.401Z,76.49
2023-05-19T11:03:15.425Z,75.42
2023-05-19T11:05:51.018Z,76.17
2023-05-19T11:08:33.236Z,79.24
2023-05-19T11:11:14.128Z,79.30
2023-05-19T11:13:49.094Z,76.92
2023-05-19T11:16:28.214Z,77.33
2023-05-19T11:19:02.672Z,78.21
2023-05-19T11:21:55.559Z,79.20
2023-05-19T11:24:34.947Z,79.85
2023-05-19T11:27:27.251Z,82.14
2023-05-19T11:30:00.637Z,80.54
2023-05-19T11:32:34.936Z,82.74
2023-05-19T11:35:11.187Z,77.95
2023-05-19T11:37:44.013Z,79.55
2023-05-19T11:40:16.855Z,81.13
2023-05-19T11:42:49.499Z,81.41
2023-05-19T11:45:25.735Z,80.92
2023-05-19T11:48:02.712Z,83.98
2023-05-19T11:50:38.458Z,83.55
2023-05-19T11:53:13.251Z,82.51
2023-05-19T11:55:47.047Z,80.42
2023-05-19T11:58:26.131Z,80.23
2023-05-19T12:00:58.884Z,79.66
2023-05-19T12:03:33.189Z,77.05
2023-05-19T12:06:08.534Z,77.17
2023-05-19T12:08:41.304Z,78.56
2023-05-19T12:11:14.194Z,77.43
2023-05-19T12:13:48.081Z,76.46
2023-05-19T12:16:21.516Z,79.34
2023-05-19T12:18:56.416Z,77.65
2023-05-19T12:21:34.275Z,77.73
2023-05-19T12:24:08.014Z,75.45
2023-05-19T12:26:42.102Z,79.98
2023-05-19T12:29:15.130Z,77.94
2023-05-19T12:31:48.171Z,76.52
2023-05-19T12:34:21.912Z,68.83
2023-05-19T12:36:56.227Z,76.03
2023-05-19T12:39:29.576Z,78.01
2023-05-19T12:42:02.785Z,77.33
2023-05-19T12:44:37.988Z,76.21
2023-05-19T12:47:10.823Z,75.99
2023-05-19T12:49:55.028Z,76.91
2023-05-19T12:52:30.063Z,74.12
2023-05-19T12:55:05.119Z,75.86
2023-05-19T12:57:38.712Z,76.18
2023-05-19T13:00:15.228Z,72.91
2023-05-19T13:02:58.792Z,71.57
2023-05-19T13:05:33.658Z,73.59
2023-05-19T13:08:08.930Z,75.87
2023-05-19T13:10:42.651Z,80.20
2023-05-19T13:13:15.403Z,77.92
2023-05-19T13:15:49.387Z,78.56
2023-05-19T13:18:22.206Z,77.28
2023-05-19T13:20:54.963Z,76.34
2023-05-19T13:23:29.299Z,74.26
2023-05-19T13:26:04.870Z,76.36
2023-05-19T13:28:37.733Z,74.32
2023-05-19T13:31:10.892Z,70.37
2023-05-19T13:33:43.744Z,73.43
2023-05-19T13:36:16.846Z,72.43
2023-05-19T13:38:50.940Z,72.71
2023-05-19T13:41:26.929Z,73.75
2023-05-19T13:44:00.370Z,75.72
2023-05-19T13:46:43.949Z,74.86
2023-05-19T13:49:17.406Z,74.50
2023-05-19T13:51:50.200Z,75.40
2023-05-19T13:54:24.773Z,73.43
2023-05-19T13:56:57.485Z,75.90
2023-05-19T13:59:30.228Z,75.46
2023-05-19T14:02:03.559Z,73.48
2023-05-19T14:04:37.956Z,63.42
2023-05-19T14:07:10.827Z,69.34
2023-05-19T14:09:46.203Z,70.82
2023-05-19T14:12:19.296Z,65.97
2023-05-19T14:14:53.450Z,67.62
2023-05-19T14:17:28.586Z,70.59
2023-05-19T14:20:01.495Z,63.95
2023-05-19T14:22:34.326Z,72.97
2023-05-19T14:25:09.517Z,76.03
2023-05-19T14:27:42.304Z,72.46
2023-05-19T14:30:15.053Z,72.65
2023-05-19T14:32:47.843Z,73.67
2023-05-19T14:35:20.977Z,76.31
2023-05-19T14:37:53.803Z,71.02
2023-05-19T14:40:28.120Z,75.39
2023-05-19T14:43:00.815Z,73.45
2023-05-19T14:45:33.618Z,72.68
2023-05-19T14:48:06.558Z,74.75
2023-05-19T14:50:39.354Z,72.92
2023-05-19T14:53:12.125Z,73.77
2023-05-19T14:55:48.376Z,67.85
2023-05-19T14:58:29.025Z,72.31
2023-05-19T15:01:02.229Z,71.26
2023-05-19T15:03:35.014Z,73.76
2023-05-19T15:06:09.601Z,69.45
2023-05-19T15:08:42.321Z,67.96
2023-05-19T15:11:16.489Z,71.60
2023-05-19T15:13:49.339Z,71.52
2023-05-19T15:16:22.453Z,73.54
2023-05-19T15:18:55.261Z,73.24
2023-05-19T15:21:28.322Z,70.33
2023-05-19T15:24:01.089Z,71.59
2023-05-19T15:26:35.198Z,74.35
2023-05-19T15:29:07.934Z,75.37
2023-05-19T15:31:40.840Z,72.84
2023-05-19T15:34:13.684Z,74.09
2023-05-19T15:36:46.480Z,77.50
2023-05-19T15:39:19.222Z,76.01
2023-05-19T15:41:53.382Z,77.56
2023-05-19T15:44:28.828Z,77.96
2023-05-19T15:47:01.945Z,77.38
2023-05-19T15:49:34.819Z,77.68
2023-05-19T15:52:07.754Z,77.31
2023-05-19T15:54:40.471Z,76.73
2023-05-19T15:57:14.906Z,75.33
2023-05-19T15:59:47.927Z,69.27
2023-05-19T16:02:20.948Z,77.74
2023-05-19T16:04:53.973Z,75.03
2023-05-19T16:07:26.846Z,74.70
2023-05-19T16:09:59.535Z,76.25
2023-05-19T16:12:38.451Z,75.67
2023-05-19T16:15:11.496Z,76.92
2023-05-19T16:17:44.323Z,74.36
2023-05-19T16:20:17.237Z,74.20
2023-05-19T16:22:49.938Z,70.82
2023-05-19T16:25:28.040Z,74.62
2023-05-19T16:28:25.636Z,74.25
2023-05-19T16:31:00.290Z,72.69
2023-05-19T16:33:33.459Z,73.50
2023-05-19T16:36:06.476Z,74.63
2023-05-19T16:38:39.215Z,76.53
2023-05-19T16:41:12.515Z,72.26
2023-05-19T16:43:45.212Z,75.65
2023-05-19T16:46:19.516Z,72.60
2023-05-19T16:48:52.371Z,73.18
2023-05-19T16:51:25.116Z,74.52
2023-05-19T16:53:57.901Z,76.04
2023-05-19T16:56:31.049Z,68.42
2023-05-19T16:59:03.811Z,71.62
2023-05-19T17:01:38.974Z,73.27
2023-05-19T17:04:18.229Z,68.13
2023-05-19T17:06:51.072Z,75.11
2023-05-19T17:09:25.976Z,72.06
2023-05-19T17:11:58.936Z,72.47
2023-05-19T17:14:31.762Z,73.55
2023-05-19T17:17:06.071Z,73.81
2023-05-19T17:19:39.038Z,74.22
2023-05-19T17:22:12.104Z,75.11
2023-05-19T17:24:45.216Z,70.88
2023-05-19T17:27:17.980Z,73.00
2023-05-19T17:29:51.044Z,75.71
2023-05-19T17:32:28.549Z,74.50
2023-05-19T17:35:03.152Z,73.21
2023-05-19T17:37:36.472Z,75.78
2023-05-19T17:40:10.324Z,71.48
2023-05-19T17:42:43.450Z,70.30
2023-05-19T17:45:16.237Z,73.49
2023-05-19T17:47:50.420Z,74.11
2023-05-19T17:50:23.355Z,73.92
2023-05-19T17:52:56.394Z,74.08
2023-05-19T17:55:31.111Z,74.25
2023-05-19T17:58:04.058Z,73.88
2023-05-19T18:00:38.666Z,72.89
2023-05-19T18:03:13.228Z,72.86
2023-05-19T18:05:46.094Z,72.16
2023-05-19T18:08:19.411Z,74.46
2023-05-19T18:10:53.232Z,73.84
2023-05-19T18:13:26.227Z,76.12
2023-05-19T18:15:59.920Z,74.65
2023-05-19T18:18:37.324Z,74.35
2023-05-19T18:21:14.305Z,74.95
2023-05-19T18:23:48.027Z,74.88
2023-05-19T18:26:21.473Z,74.83
2023-05-19T18:28:54.176Z,75.00
2023-05-19T18:31:26.940Z,74.86
2023-05-19T18:34:01.231Z,73.78
2023-05-19T18:36:35.171Z,73.08
2023-05-19T18:39:07.849Z,73.79
2023-05-19T18:41:41.426Z,75.66
2023-05-19T18:44:14.354Z,73.74
2023-05-19T18:46:47.047Z,73.86
2023-05-19T18:49:21.121Z,74.38
2023-05-19T18:51:53.973Z,74.80
2023-05-19T18:54:26.962Z,75.38
2023-05-19T18:57:00.174Z,75.12
2023-05-19T18:59:32.887Z,75.14
2023-05-19T19:02:06.009Z,75.20
2023-05-19T19:04:40.213Z,75.98
2023-05-19T19:07:13.206Z,75.63
2023-05-19T19:09:45.897Z,75.39
2023-05-19T19:12:20.374Z,75.72
2023-05-19T19:14:53.394Z,75.62
2023-05-19T19:17:27.471Z,75.77
2023-05-19T19:20:01.678Z,75.71
2023-05-19T19:22:34.543Z,75.84
2023-05-19T19:25:07.532Z,76.27
2023-05-19T19:27:40.303Z,75.64
2023-05-19T19:30:13.333Z,75.12
2023-05-19T19:32:46.122Z,75.98
2023-05-19T19:35:20.901Z,75.52
2023-05-19T19:37:53.746Z,75.85
2023-05-19T19:40:26.697Z,75.98
2023-05-19T19:42:59.588Z,75.80
2023-05-19T19:45:34.657Z,76.03
2023-05-19T19:48:08.304Z,76.15
2023-05-19T19:50:42.486Z,75.69
2023-05-19T19:53:15.653Z,75.98
2023-05-19T19:55:56.422Z,76.08
2023-05-19T19:58:29.945Z,76.14
2023-05-19T20:01:03.371Z,75.90
2023-05-19T20:03:36.633Z,75.66
2023-05-19T20:06:10.876Z,75.35
2023-05-19T20:08:43.652Z,72.87
2023-05-19T20:11:16.467Z,72.41
2023-05-19T20:13:49.224Z,75.11
2023-05-19T20:16:22.178Z,78.11
2023-05-19T20:18:55.136Z,72.78
2023-05-19T20:21:29.483Z,75.17
2023-05-19T20:24:02.455Z,73.40
2023-05-19T20:26:35.250Z,75.02
2023-05-19T20:29:08.017Z,73.75
2023-05-19T20:31:41.214Z,74.48
2023-05-19T20:34:14.125Z,71.80
2023-05-19T20:36:48.236Z,73.94
2023-05-19T20:39:20.971Z,74.20
2023-05-19T20:41:53.646Z,74.28
2023-05-19T20:44:26.390Z,74.65
2023-05-19T20:46:59.059Z,74.01
2023-05-19T20:49:32.107Z,74.07
2023-05-19T20:52:06.992Z,74.17
2023-05-19T20:54:40.125Z,74.24
2023-05-19T20:57:13.158Z,74.40
2023-05-19T20:59:46.019Z,74.49
2023-05-19T21:02:18.825Z,75.00
2023-05-19T21:04:51.671Z,74.79
2023-05-19T21:07:25.986Z,75.01
2023-05-19T21:09:58.731Z,74.90
2023-05-19T21:12:34.258Z,74.91
2023-05-19T21:15:08.045Z,74.79
2023-05-19T21:17:40.875Z,74.57
2023-05-19T21:20:13.873Z,74.27
2023-05-19T21:22:48.073Z,74.26
2023-05-19T21:25:21.156Z,74.00
2023-05-19T21:27:55.458Z,73.64
2023-05-19T21:30:28.306Z,73.73
2023-05-19T21:33:01.011Z,73.62
2023-05-19T21:35:33.777Z,73.61
2023-05-19T21:38:22.033Z,73.15
2023-05-19T21:40:55.957Z,73.40
2023-05-19T21:43:28.622Z,72.91
2023-05-19T21:46:01.549Z,73.07
2023-05-19T21:48:34.485Z,73.19
2023-05-19T21:51:07.479Z,73.04
2023-05-19T21:53:41.906Z,73.01
2023-05-19T21:56:14.758Z,72.93
2023-05-19T21:58:47.434Z,72.94
2023-05-19T22:01:20.289Z,72.71
2023-05-19T22:03:54.166Z,72.75
2023-05-19T22:06:29.183Z,72.66
2023-05-19T22:09:03.764Z,72.83
2023-05-19T22:11:36.780Z,72.88
2023-05-19T22:14:09.573Z,72.79
2023-05-19T22:16:42.446Z,72.90
2023-05-19T22:19:15.395Z,72.71
2023-05-19T22:21:48.351Z,72.97
2023-05-19T22:24:23.444Z,73.10
2023-05-19T22:26:56.358Z,73.09
2023-05-19T22:29:29.155Z,73.07
2023-05-19T22:32:01.937Z,73.21
2023-05-19T22:34:34.710Z,73.32
2023-05-19T22:37:07.516Z,73.40
2023-05-19T22:39:41.715Z,73.34
2023-05-19T22:42:14.796Z,73.31
2023-05-19T22:44:47.539Z,73.65
2023-05-19T22:47:20.275Z,73.90
2023-05-19T22:49:54.813Z,74.19
2023-05-19T22:52:28.411Z,74.10
2023-05-19T22:55:02.573Z,74.61
2023-05-19T22:57:35.350Z,74.68
2023-05-19T23:00:09.343Z,74.51
2023-05-19T23:02:42.486Z,74.09
2023-05-19T23:05:15.361Z,74.56
2023-05-19T23:07:48.238Z,74.23
2023-05-19T23:10:22.371Z,74.21
2023-05-19T23:12:55.225Z,73.83
2023-05-19T23:15:28.464Z,73.76
2023-05-19T23:18:07.219Z,74.16
2023-05-19T23:20:40.454Z,73.88
2023-05-19T23:23:13.219Z,73.94
2023-05-19T23:25:47.366Z,74.30
2023-05-19T23:28:20.113Z,74.01
2023-05-19T23:30:54.016Z,74.37
2023-05-19T23:33:26.809Z,74.63
2023-05-19T23:36:01.237Z,74.18
2023-05-19T23:38:33.950Z,74.57
2023-05-19T23:41:08.124Z,74.75
2023-05-19T23:43:41.090Z,75.10
2023-05-19T23:46:14.107Z,75.30
2023-05-19T23:48:48.506Z,75.81
2023-05-19T23:51:21.236Z,75.73
2023-05-19T23:53:54.006Z,75.49
2023-05-19T23:56:28.515Z,76.15
2023-05-19T23:59:01.165Z,75.81
